createdAt,value
2018-06-15T00:00:52.744Z,100816.65
2018-06-15T00:03:22.760Z,100815.02
2018-06-15T00:05:52.844Z,100813.23
2018-06-15T00:08:22.778Z,100814.97
2018-06-15T00:10:52.826Z,100814.69
2018-06-15T00:13:23.549Z,100814.22
2018-06-15T00:15:54.080Z,100803.26
2018-06-15T00:18:24.924Z,100805.76
2018-06-15T00:20:56.969Z,100809.06
2018-06-15T00:23:27.366Z,100802.95
2018-06-15T00:25:57.627Z,100802.84
2018-06-15T00:28:28.911Z,100804.07
2018-06-15T00:31:00.350Z,100803.91
2018-06-15T00:33:30.665Z,100798.64
2018-06-15T00:36:01.756Z,100807.23
2018-06-15T00:38:31.970Z,100810.46
2018-06-15T00:41:01.899Z,100813.69
2018-06-15T00:43:31.516Z,100813.23
2018-06-15T00:46:01.782Z,100803.41
2018-06-15T00:48:32.674Z,100812.12
2018-06-15T00:51:02.826Z,100811.30
2018-06-15T00:53:32.792Z,100808.20
2018-06-15T00:56:03.032Z,100801.20
2018-06-15T00:58:32.993Z,100804.68
2018-06-15T01:01:02.956Z,100800.83
2018-06-15T01:03:32.972Z,100802.39
2018-06-15T01:06:02.969Z,100796.55
2018-06-15T01:08:33.095Z,100801.44
2018-06-15T01:11:03.088Z,100798.98
2018-06-15T01:13:33.407Z,100800.08
2018-06-15T01:16:03.561Z,100799.46
2018-06-15T01:18:35.967Z,100800.83
2018-06-15T01:21:06.228Z,100795.73
2018-06-15T01:23:36.386Z,100792.83
2018-06-15T01:26:06.444Z,100793.73
2018-06-15T01:28:36.427Z,100795.87
2018-06-15T01:31:06.990Z,100792.23
2018-06-15T01:33:36.875Z,100792.94
2018-06-15T01:36:06.756Z,100792.34
2018-06-15T01:38:36.933Z,100791.41
2018-06-15T01:41:06.884Z,100785.59
2018-06-15T01:43:36.739Z,100784.03
2018-06-15T01:46:06.686Z,100780.50
2018-06-15T01:48:36.690Z,100787.51
2018-06-15T01:51:06.578Z,100790.75
2018-06-15T01:53:36.484Z,100778.77
2018-06-15T01:56:06.740Z,100775.51
2018-06-15T01:58:36.762Z,100776.09
2018-06-15T02:01:06.855Z,100782.91
2018-06-15T02:03:36.758Z,100777.64
2018-06-15T02:06:06.773Z,100787.45
2018-06-15T02:08:36.942Z,100785.89
2018-06-15T02:11:07.138Z,100781.94
2018-06-15T02:13:37.346Z,100783.52
2018-06-15T02:16:07.543Z,100777.17
2018-06-15T02:18:37.423Z,100780.63
2018-06-15T02:21:07.438Z,100780.37
2018-06-15T02:23:37.502Z,100778.66
2018-06-15T02:26:07.340Z,100781.12
2018-06-15T02:28:37.408Z,100780.75
2018-06-15T02:31:07.461Z,100778.42
2018-06-15T02:33:37.363Z,100779.02
2018-06-15T02:36:07.340Z,100777.23
2018-06-15T02:38:38.542Z,100780.56
2018-06-15T02:41:08.641Z,100771.14
2018-06-15T02:43:38.526Z,100769.52
2018-06-15T02:46:08.349Z,100774.29
2018-06-15T02:48:38.464Z,100779.50
2018-06-15T02:51:08.630Z,100767.00
2018-06-15T02:53:38.512Z,100774.54
2018-06-15T02:56:08.494Z,100779.27
2018-06-15T02:58:38.583Z,100775.38
2018-06-15T03:01:08.491Z,100777.05
2018-06-15T03:03:38.781Z,100782.92
2018-06-15T03:06:09.412Z,100779.61
2018-06-15T03:08:39.385Z,100786.37
2018-06-15T03:11:09.377Z,100792.50
2018-06-15T03:13:42.824Z,100795.60
2018-06-15T03:16:13.227Z,100788.88
2018-06-15T03:18:43.726Z,100789.20
2018-06-15T03:21:13.760Z,100800.63
2018-06-15T03:23:43.752Z,100791.26
2018-06-15T03:26:13.773Z,100789.03
2018-06-15T03:28:44.119Z,100796.77
2018-06-15T03:31:17.080Z,100804.48
2018-06-15T03:33:47.949Z,100808.63
2018-06-15T03:36:17.885Z,100813.16
2018-06-15T03:38:47.755Z,100819.47
2018-06-15T03:41:18.184Z,100824.52
2018-06-15T03:43:48.242Z,100824.70
2018-06-15T03:46:18.233Z,100817.29
2018-06-15T03:48:48.194Z,100816.81
2018-06-15T03:51:18.223Z,100821.83
2018-06-15T03:53:48.715Z,100822.17
2018-06-15T03:56:18.748Z,100824.98
2018-06-15T03:58:48.720Z,100820.28
2018-06-15T04:01:18.907Z,100822.84
2018-06-15T04:03:48.995Z,100828.65
2018-06-15T04:06:19.181Z,100823.61
2018-06-15T04:08:49.226Z,100819.37
2018-06-15T04:11:18.802Z,100823.94
2018-06-15T04:13:49.822Z,100823.45
2018-06-15T04:16:22.008Z,100824.33
2018-06-15T04:18:52.871Z,100821.83
2018-06-15T04:21:24.771Z,100818.08
2018-06-15T04:23:54.654Z,100824.63
2018-06-15T04:26:24.730Z,100828.72
2018-06-15T04:28:54.806Z,100828.94
2018-06-15T04:31:24.850Z,100835.59
2018-06-15T04:33:54.726Z,100843.98
2018-06-15T04:36:24.804Z,100835.03
2018-06-15T04:38:54.830Z,100843.39
2018-06-15T04:41:24.819Z,100844.97
2018-06-15T04:43:54.745Z,100844.45
2018-06-15T04:46:24.775Z,100843.14
2018-06-15T04:48:54.866Z,100841.86
2018-06-15T04:51:24.922Z,100849.02
2018-06-15T04:53:54.942Z,100845.59
2018-06-15T04:56:25.559Z,100852.31
2018-06-15T04:58:55.471Z,100846.86
2018-06-15T05:01:25.411Z,100847.77
2018-06-15T05:03:56.083Z,100847.70
2018-06-15T05:06:26.027Z,100847.48
2018-06-15T05:08:55.907Z,100845.19
2018-06-15T05:11:25.892Z,100845.34
2018-06-15T05:13:55.849Z,100844.24
2018-06-15T05:16:25.868Z,100847.96
2018-06-15T05:21:30.807Z,100854.35
2018-06-15T05:24:00.623Z,100847.00
2018-06-15T05:26:30.635Z,100856.29
2018-06-15T05:29:00.614Z,100849.24
2018-06-15T05:31:30.556Z,100853.98
2018-06-15T05:34:00.559Z,100849.63
2018-06-15T05:36:32.488Z,100862.00
2018-06-15T05:39:02.573Z,100863.58
2018-06-15T05:41:39.673Z,100862.73
2018-06-15T05:44:10.414Z,100864.34
2018-06-15T05:46:41.982Z,100874.20
2018-06-15T05:49:11.999Z,100863.33
2018-06-15T05:51:42.004Z,100862.09
2018-06-15T05:54:12.247Z,100855.44
2018-06-15T05:56:42.433Z,100846.58
2018-06-15T05:59:12.430Z,100845.59
2018-06-15T06:01:42.478Z,100847.91
2018-06-15T06:04:12.572Z,100854.19
2018-06-15T06:06:44.293Z,100859.67
2018-06-15T06:09:14.377Z,100863.14
2018-06-15T06:11:44.692Z,100866.38
2018-06-15T06:14:15.069Z,100880.67
2018-06-15T06:16:45.095Z,100874.16
2018-06-15T06:19:15.104Z,100879.67
2018-06-15T06:21:45.080Z,100883.12
2018-06-15T06:24:15.060Z,100885.28
2018-06-15T06:26:46.016Z,100888.93
2018-06-15T06:29:16.180Z,100891.40
2018-06-15T06:31:46.282Z,100894.19
2018-06-15T06:34:16.324Z,100897.53
2018-06-15T06:36:46.406Z,100894.73
2018-06-15T06:39:16.467Z,100895.25
2018-06-15T06:41:46.413Z,100895.91
2018-06-15T06:44:16.439Z,100889.11
2018-06-15T06:46:46.448Z,100889.41
2018-06-15T06:49:16.459Z,100891.63
2018-06-15T06:51:46.475Z,100893.72
2018-06-15T06:54:16.526Z,100893.48
2018-06-15T06:56:46.567Z,100888.23
2018-06-15T06:59:16.526Z,100886.84
2018-06-15T07:01:46.575Z,100890.24
2018-06-15T07:04:16.539Z,100883.85
2018-06-15T07:06:46.639Z,100891.92
2018-06-15T07:09:16.723Z,100893.84
2018-06-15T07:11:46.794Z,100892.75
2018-06-15T07:14:16.762Z,100884.06
2018-06-15T07:16:46.764Z,100895.69
2018-06-15T07:19:16.748Z,100896.81
2018-06-15T07:21:46.820Z,100898.91
2018-06-15T07:24:16.859Z,100898.07
2018-06-15T07:26:46.888Z,100901.23
2018-06-15T07:29:16.886Z,100905.50
2018-06-15T07:31:47.533Z,100892.98
2018-06-15T07:34:17.555Z,100896.16
2018-06-15T07:36:47.544Z,100893.73
2018-06-15T07:39:17.503Z,100890.00
2018-06-15T07:41:47.535Z,100893.56
2018-06-15T07:44:17.490Z,100889.88
2018-06-15T07:46:47.396Z,100886.69
2018-06-15T07:49:17.350Z,100889.61
2018-06-15T07:51:47.305Z,100891.25
2018-06-15T07:54:17.260Z,100891.98
2018-06-15T07:56:47.327Z,100887.78
2018-06-15T07:59:17.363Z,100895.30
2018-06-15T08:01:47.428Z,100894.06
2018-06-15T08:04:20.563Z,100894.53
2018-06-15T08:06:50.622Z,100893.13
2018-06-15T08:09:21.140Z,100889.22
2018-06-15T08:11:50.723Z,100890.42
2018-06-15T08:14:20.619Z,100889.38
2018-06-15T08:16:50.606Z,100888.69
2018-06-15T08:19:20.551Z,100894.82
2018-06-15T08:21:50.534Z,100896.05
2018-06-15T08:24:20.434Z,100890.50
2018-06-15T08:26:50.451Z,100886.48
2018-06-15T08:29:20.487Z,100886.92
2018-06-15T08:31:50.524Z,100884.28
2018-06-15T08:34:21.239Z,100889.30
2018-06-15T08:36:51.227Z,100891.16
2018-06-15T08:39:21.167Z,100890.70
2018-06-15T08:41:51.145Z,100891.36
2018-06-15T08:44:21.075Z,100892.38
2018-06-15T08:46:51.185Z,100896.16
2018-06-15T08:49:21.145Z,100898.11
2018-06-15T08:51:51.114Z,100896.66
2018-06-15T08:54:21.204Z,100885.42
2018-06-15T08:56:51.143Z,100890.70
2018-06-15T08:59:20.960Z,100885.94
2018-06-15T09:01:50.884Z,100891.44
2018-06-15T09:04:20.847Z,100882.89
2018-06-15T09:06:50.878Z,100887.34
2018-06-15T09:09:20.808Z,100886.58
2018-06-15T09:11:50.849Z,100882.41
2018-06-15T09:14:20.939Z,100886.28
2018-06-15T09:16:50.902Z,100880.02
2018-06-15T09:19:20.827Z,100881.88
2018-06-15T09:21:50.666Z,100887.13
2018-06-15T09:24:20.588Z,100884.00
2018-06-15T09:26:50.541Z,100885.92
2018-06-15T09:29:23.797Z,100878.96
2018-06-15T09:31:53.639Z,100873.78
2018-06-15T09:34:23.554Z,100877.65
2018-06-15T09:36:54.262Z,100871.73
2018-06-15T09:39:27.903Z,100877.61
2018-06-15T09:41:57.771Z,100879.89
2018-06-15T09:44:27.758Z,100881.41
2018-06-15T09:47:00.455Z,100883.17
2018-06-15T09:49:30.434Z,100881.34
2018-06-15T09:52:00.326Z,100884.84
2018-06-15T09:54:30.136Z,100885.94
2018-06-15T09:56:59.985Z,100879.79
2018-06-15T09:59:32.802Z,100882.77
2018-06-15T10:02:02.711Z,100878.36
2018-06-15T10:04:32.551Z,100882.30
2018-06-15T10:07:06.515Z,100875.08
2018-06-15T10:09:36.383Z,100872.05
2018-06-15T10:12:06.292Z,100874.27
2018-06-15T10:14:35.868Z,100879.28
2018-06-15T10:17:05.714Z,100882.23
2018-06-15T10:19:35.275Z,100876.84
2018-06-15T10:22:05.318Z,100879.90
2018-06-15T10:24:35.259Z,100879.03
2018-06-15T10:27:05.448Z,100874.59
2018-06-15T10:29:35.412Z,100875.61
2018-06-15T10:32:05.380Z,100875.89
2018-06-15T10:34:35.346Z,100873.52
2018-06-15T10:37:05.410Z,100868.16
2018-06-15T10:39:35.324Z,100867.97
2018-06-15T10:42:16.911Z,100869.44
2018-06-15T10:45:06.714Z,100867.67
2018-06-15T10:47:48.515Z,100862.18
2018-06-15T10:50:18.456Z,100864.81
2018-06-15T10:52:48.509Z,100864.88
2018-06-15T10:57:57.267Z,100858.41
2018-06-15T11:00:28.128Z,100854.77
2018-06-15T11:03:00.716Z,100860.59
2018-06-15T11:05:35.982Z,100863.53
2018-06-15T11:08:18.040Z,100855.14
2018-06-15T11:10:53.809Z,100854.31
2018-06-15T11:13:27.564Z,100854.75
2018-06-15T11:15:57.148Z,100853.69
2018-06-15T11:18:27.296Z,100852.44
2018-06-15T11:20:58.706Z,100855.25
2018-06-15T11:23:46.903Z,100849.25
2018-06-15T11:26:16.796Z,100849.08
2018-06-15T11:28:47.021Z,100846.38
2018-06-15T11:31:17.185Z,100847.92
2018-06-15T11:33:47.151Z,100844.34
2018-06-15T11:36:17.134Z,100837.28
2018-06-15T11:38:47.087Z,100830.17
2018-06-15T11:41:17.488Z,100829.44
2018-06-15T11:43:47.359Z,100837.88
2018-06-15T11:46:17.200Z,100835.39
2018-06-15T11:48:47.127Z,100830.63
2018-06-15T11:53:57.060Z,100825.66
2018-06-15T11:56:33.757Z,100830.02
2018-06-15T11:59:03.846Z,100828.44
2018-06-15T12:01:33.751Z,100824.44
2018-06-15T12:04:03.762Z,100822.70
2018-06-15T12:06:33.936Z,100816.94
2018-06-15T12:09:06.452Z,100821.27
2018-06-15T12:11:36.973Z,100813.20
2018-06-15T12:14:08.175Z,100803.99
2018-06-15T12:16:38.524Z,100807.16
2018-06-15T12:19:14.510Z,100809.73
2018-06-15T12:21:54.810Z,100805.38
2018-06-15T12:24:25.268Z,100800.63
2018-06-15T12:26:55.473Z,100804.11
2018-06-15T12:29:25.511Z,100801.16
2018-06-15T12:31:55.263Z,100798.73
2018-06-15T12:34:25.405Z,100797.39
2018-06-15T12:36:59.025Z,100796.56
2018-06-15T12:39:29.106Z,100796.72
2018-06-15T12:42:09.956Z,100801.95
2018-06-15T12:44:55.805Z,100798.70
2018-06-15T12:47:27.758Z,100797.73
2018-06-15T12:49:59.454Z,100797.67
2018-06-15T12:52:29.524Z,100796.32
2018-06-15T12:55:15.118Z,100793.51
2018-06-15T12:57:56.683Z,100788.45
2018-06-15T13:03:49.566Z,100782.67
2018-06-15T13:06:22.707Z,100787.62
2018-06-15T13:08:57.469Z,100780.86
2018-06-15T13:11:40.128Z,100780.52
2018-06-15T13:14:12.044Z,100782.17
2018-06-15T13:16:42.728Z,100792.95
2018-06-15T13:19:13.221Z,100784.74
2018-06-15T13:22:03.856Z,100785.27
2018-06-15T13:24:37.189Z,100781.12
2018-06-15T13:27:17.624Z,100776.39
2018-06-15T13:30:02.279Z,100774.22
2018-06-15T13:32:33.550Z,100783.05
2018-06-15T13:35:06.276Z,100781.91
2018-06-15T13:38:02.446Z,100776.10
2018-06-15T13:40:39.478Z,100774.62
2018-06-15T13:43:12.238Z,100782.02
2018-06-15T13:45:43.263Z,100775.11
2018-06-15T13:48:24.296Z,100775.61
2018-06-15T13:50:55.406Z,100776.94
2018-06-15T13:53:26.922Z,100778.40
2018-06-15T13:59:07.240Z,100771.95
2018-06-15T14:01:38.422Z,100775.16
2018-06-15T14:04:08.649Z,100774.99
2018-06-15T14:06:38.746Z,100765.16
2018-06-15T14:09:10.101Z,100766.28
2018-06-15T14:14:23.008Z,100769.48
2018-06-15T14:17:11.861Z,100768.38
2018-06-15T14:20:10.137Z,100757.66
2018-06-15T14:22:46.127Z,100764.66
2018-06-15T14:25:22.524Z,100765.03
2018-06-15T14:27:53.778Z,100754.47
2018-06-15T14:30:25.509Z,100751.77
2018-06-15T14:32:56.718Z,100753.67
2018-06-15T14:35:28.465Z,100755.20
2018-06-15T14:37:59.052Z,100748.31
2018-06-15T14:40:46.926Z,100749.33
2018-06-15T14:43:19.132Z,100745.91
2018-06-15T14:45:49.922Z,100747.05
2018-06-15T14:48:20.338Z,100742.05
2018-06-15T14:50:51.068Z,100746.07
2018-06-15T14:53:21.943Z,100744.88
2018-06-15T15:01:13.423Z,100750.72
2018-06-15T15:03:47.705Z,100741.72
2018-06-15T15:06:22.272Z,100741.55
2018-06-15T15:11:41.946Z,100737.60
2018-06-15T15:14:17.578Z,100738.69
2018-06-15T15:16:49.842Z,100736.23
2018-06-15T15:19:21.226Z,100738.16
2018-06-15T15:21:51.363Z,100731.92
2018-06-15T15:24:24.590Z,100733.96
2018-06-15T15:27:00.914Z,100729.30
2018-06-15T15:29:35.639Z,100726.97
2018-06-15T15:34:49.467Z,100726.31
2018-06-15T15:37:20.287Z,100730.45
2018-06-15T15:39:50.708Z,100727.48
2018-06-15T15:42:20.792Z,100727.14
2018-06-15T15:44:51.408Z,100729.86
2018-06-15T15:47:21.577Z,100726.92
2018-06-15T15:49:52.397Z,100722.63
2018-06-15T15:52:23.027Z,100716.31
2018-06-15T15:55:05.367Z,100718.30
2018-06-15T15:57:35.737Z,100708.66
2018-06-15T16:00:11.348Z,100704.98
2018-06-15T16:02:48.193Z,100700.30
2018-06-15T16:05:21.199Z,100709.16
2018-06-15T16:07:51.450Z,100700.63
2018-06-15T16:10:21.432Z,100703.98
2018-06-15T16:12:51.270Z,100699.62
2018-06-15T16:21:20.877Z,100708.99
2018-06-15T16:23:52.024Z,100703.77
2018-06-15T16:29:36.067Z,100698.28
2018-06-15T16:32:15.726Z,100701.78
2018-06-15T16:34:47.450Z,100695.97
2018-06-15T16:37:22.617Z,100701.98
2018-06-15T16:40:08.708Z,100697.99
2018-06-15T16:42:40.220Z,100699.27
2018-06-15T16:45:10.361Z,100695.75
2018-06-15T16:47:43.613Z,100699.48
2018-06-15T16:50:15.398Z,100704.13
2018-06-15T16:52:45.704Z,100706.02
2018-06-15T16:55:17.005Z,100700.31
2018-06-15T16:57:47.483Z,100701.48
2018-06-15T17:00:17.359Z,100699.83
2018-06-15T17:02:47.531Z,100699.62
2018-06-15T17:05:17.470Z,100704.93
2018-06-15T17:07:47.630Z,100701.79
2018-06-15T17:10:17.535Z,100698.92
2018-06-15T17:12:47.504Z,100708.37
2018-06-15T17:15:17.710Z,100707.32
2018-06-15T17:17:47.507Z,100710.22
2018-06-15T17:20:17.539Z,100710.06
2018-06-15T17:22:47.349Z,100710.76
2018-06-15T17:25:17.171Z,100704.09
2018-06-15T17:27:47.055Z,100715.22
2018-06-15T17:30:17.040Z,100712.05
2018-06-15T17:32:48.400Z,100716.59
2018-06-15T17:35:18.408Z,100722.41
2018-06-15T17:37:48.401Z,100723.09
2018-06-15T17:40:18.399Z,100721.41
2018-06-15T17:42:48.422Z,100721.13
2018-06-15T17:45:18.391Z,100721.09
2018-06-15T17:47:48.288Z,100725.03
2018-06-15T17:50:18.234Z,100719.28
2018-06-15T17:52:48.192Z,100730.61
2018-06-15T17:55:18.102Z,100726.22
2018-06-15T17:57:48.150Z,100726.78
2018-06-15T18:00:18.034Z,100728.62
2018-06-15T18:02:47.930Z,100727.66
2018-06-15T18:05:17.749Z,100729.27
2018-06-15T18:07:47.168Z,100732.95
2018-06-15T18:10:16.907Z,100729.91
2018-06-15T18:12:47.023Z,100730.66
2018-06-15T18:15:16.811Z,100726.19
2018-06-15T18:17:46.806Z,100726.53
2018-06-15T18:20:16.859Z,100725.36
2018-06-15T18:22:46.673Z,100729.07
2018-06-15T18:25:16.488Z,100732.42
2018-06-15T18:27:46.331Z,100736.56
2018-06-15T18:30:16.116Z,100729.52
2018-06-15T18:32:45.569Z,100732.65
2018-06-15T18:35:15.536Z,100732.64
2018-06-15T18:37:45.358Z,100724.77
2018-06-15T18:40:15.262Z,100735.45
2018-06-15T18:42:45.200Z,100731.73
2018-06-15T18:45:15.122Z,100730.98
2018-06-15T18:47:45.185Z,100731.27
2018-06-15T18:50:14.948Z,100726.61
2018-06-15T18:52:45.099Z,100725.78
2018-06-15T18:55:15.133Z,100724.61
2018-06-15T18:57:45.240Z,100726.19
2018-06-15T19:00:15.092Z,100728.12
2018-06-15T19:02:45.030Z,100733.59
2018-06-15T19:05:14.961Z,100729.35
2018-06-15T19:07:44.989Z,100729.31
2018-06-15T19:10:14.954Z,100727.19
2018-06-15T19:12:45.115Z,100725.70
2018-06-15T19:15:15.155Z,100731.31
2018-06-15T19:17:44.990Z,100731.09
2018-06-15T19:20:14.890Z,100735.22
2018-06-15T19:22:44.642Z,100732.87
2018-06-15T19:25:14.770Z,100732.63
2018-06-15T19:27:44.653Z,100729.09
2018-06-15T19:30:14.690Z,100737.20
2018-06-15T19:32:44.511Z,100732.52
2018-06-15T19:35:14.218Z,100731.15
2018-06-15T19:37:49.353Z,100739.44
2018-06-15T19:40:19.384Z,100737.47
2018-06-15T19:42:49.433Z,100738.20
2018-06-15T19:45:19.219Z,100735.11
2018-06-15T19:47:49.303Z,100739.32
2018-06-15T19:50:19.075Z,100737.92
2018-06-15T19:52:49.288Z,100739.47
2018-06-15T19:55:19.403Z,100739.91
2018-06-15T19:57:49.154Z,100731.63
2018-06-15T20:00:19.174Z,100737.19
2018-06-15T20:02:49.106Z,100738.83
2018-06-15T20:05:18.869Z,100750.05
2018-06-15T20:07:49.775Z,100740.54
2018-06-15T20:10:19.782Z,100748.31
2018-06-15T20:12:49.896Z,100747.05
2018-06-15T20:15:20.291Z,100742.36
2018-06-15T20:17:50.087Z,100736.93
2018-06-15T20:20:19.983Z,100728.61
2018-06-15T20:22:50.423Z,100731.05
2018-06-15T20:25:20.594Z,100733.63
2018-06-15T20:27:50.546Z,100741.55
2018-06-15T20:30:20.427Z,100738.73
2018-06-15T20:32:50.459Z,100745.31
2018-06-15T20:35:20.365Z,100743.02
2018-06-15T20:37:50.221Z,100747.62
2018-06-15T20:40:20.096Z,100744.00
2018-06-15T20:42:50.015Z,100747.20
2018-06-15T20:45:20.030Z,100743.75
2018-06-15T20:47:49.921Z,100744.23
2018-06-15T20:50:19.759Z,100742.42
2018-06-15T20:52:49.682Z,100738.09
2018-06-15T20:55:19.424Z,100737.94
2018-06-15T20:57:49.406Z,100736.35
2018-06-15T21:00:19.127Z,100739.58
2018-06-15T21:02:48.984Z,100736.58
2018-06-15T21:05:18.866Z,100737.98
2018-06-15T21:07:48.808Z,100741.25
2018-06-15T21:10:18.640Z,100738.33
2018-06-15T21:12:48.536Z,100737.78
2018-06-15T21:15:18.574Z,100732.95
2018-06-15T21:17:48.659Z,100729.39
2018-06-15T21:20:18.490Z,100721.94
2018-06-15T21:22:48.512Z,100721.04
2018-06-15T21:25:18.372Z,100718.49
2018-06-15T21:27:48.520Z,100729.27
2018-06-15T21:30:18.426Z,100724.03
2018-06-15T21:32:48.271Z,100725.55
2018-06-15T21:35:18.174Z,100716.23
2018-06-15T21:37:54.724Z,100722.34
2018-06-15T21:40:24.679Z,100725.27
2018-06-15T21:42:54.543Z,100729.06
2018-06-15T21:45:24.411Z,100723.28
2018-06-15T21:47:54.510Z,100726.20
2018-06-15T21:50:24.550Z,100719.03
2018-06-15T21:52:54.328Z,100713.73
2018-06-15T21:55:24.378Z,100713.15
2018-06-15T21:57:54.284Z,100716.32
2018-06-15T22:00:26.122Z,100715.91
2018-06-15T22:02:56.031Z,100715.22
2018-06-15T22:05:26.184Z,100715.34
2018-06-15T22:07:56.502Z,100714.28
2018-06-15T22:10:26.293Z,100716.60
2018-06-15T22:12:56.502Z,100715.77
2018-06-15T22:15:26.320Z,100715.22
2018-06-15T22:17:56.196Z,100721.11
2018-06-15T22:20:26.074Z,100710.64
2018-06-15T22:22:56.016Z,100721.55
2018-06-15T22:25:25.807Z,100715.73
2018-06-15T22:27:55.989Z,100710.16
2018-06-15T22:30:25.893Z,100714.48
2018-06-15T22:32:55.712Z,100717.25
2018-06-15T22:35:25.603Z,100714.71
2018-06-15T22:37:55.825Z,100712.14
2018-06-15T22:40:25.712Z,100723.44
2018-06-15T22:42:55.675Z,100723.24
2018-06-15T22:45:25.675Z,100726.39
2018-06-15T22:47:55.567Z,100726.26
2018-06-15T22:50:25.536Z,100715.03
2018-06-15T22:52:55.674Z,100726.02
2018-06-15T22:55:25.824Z,100728.87
2018-06-15T22:57:55.972Z,100724.21
2018-06-15T23:00:26.667Z,100723.89
2018-06-15T23:02:56.632Z,100730.41
2018-06-15T23:05:26.511Z,100728.55
2018-06-15T23:07:56.050Z,100734.05
2018-06-15T23:10:25.856Z,100725.13
2018-06-15T23:12:55.671Z,100727.23
2018-06-15T23:15:25.650Z,100725.66
2018-06-15T23:17:55.559Z,100733.61
2018-06-15T23:20:25.444Z,100722.18
2018-06-15T23:22:55.579Z,100723.05
2018-06-15T23:25:25.491Z,100717.70
2018-06-15T23:27:55.635Z,100724.16
2018-06-15T23:30:25.563Z,100728.08
2018-06-15T23:32:55.452Z,100732.36
2018-06-15T23:37:54.372Z,100732.02
2018-06-15T23:40:24.599Z,100732.39
2018-06-15T23:42:54.756Z,100726.67
2018-06-15T23:45:24.659Z,100726.25
2018-06-15T23:47:54.599Z,100728.55
2018-06-15T23:50:24.389Z,100735.11
2018-06-15T23:52:54.266Z,100733.72
2018-06-15T23:55:24.153Z,100731.13
2018-06-15T23:57:54.091Z,100731.55
